createdAt,value
2023-03-10T00:02:04.135Z,96507.44
2023-03-10T00:04:32.659Z,96505.78
2023-03-10T00:07:01.026Z,96496.44
2023-03-10T00:09:29.391Z,96491.72
2023-03-10T00:11:57.717Z,96485.41
2023-03-10T00:14:26.166Z,96482.22
2023-03-10T00:16:55.887Z,96481.09
2023-03-10T00:19:24.151Z,96478.06
2023-03-10T00:21:52.439Z,96463.06
2023-03-10T00:24:20.848Z,96460.66
2023-03-10T00:26:50.975Z,96462.44
2023-03-10T00:29:19.535Z,96458.06
2023-03-10T00:31:47.795Z,96463.25
2023-03-10T00:34:17.601Z,96455.13
2023-03-10T00:36:45.842Z,96460.31
2023-03-10T00:39:14.477Z,96452.72
2023-03-10T00:41:43.113Z,96451.38
2023-03-10T00:44:13.733Z,96447.59
2023-03-10T00:46:42.550Z,96456.41
2023-03-10T00:49:15.543Z,96446.66
2023-03-10T00:51:45.222Z,96438.69
2023-03-10T00:54:13.668Z,96445.53
2023-03-10T00:56:42.303Z,96438.06
2023-03-10T00:59:13.681Z,96438.06
2023-03-10T01:01:43.503Z,96435.22
2023-03-10T01:04:14.759Z,96423.91
2023-03-10T01:06:47.510Z,96423.31
2023-03-10T01:09:17.828Z,96419.66
2023-03-10T01:11:46.928Z,96411.41
2023-03-10T01:14:16.223Z,96411.59
2023-03-10T01:16:45.067Z,96417.28
2023-03-10T01:19:13.435Z,96408.47
2023-03-10T01:21:45.249Z,96408.47
2023-03-10T01:24:16.265Z,96397.81
2023-03-10T01:26:45.000Z,96386.75
2023-03-10T01:29:13.855Z,96392.56
2023-03-10T01:31:42.788Z,96394.13
2023-03-10T01:34:11.296Z,96390.38
2023-03-10T01:36:42.303Z,96379.44
2023-03-10T01:39:12.069Z,96356.38
2023-03-10T01:41:42.584Z,96372.06
2023-03-10T01:44:16.540Z,96362.28
2023-03-10T01:46:48.397Z,96350.69
2023-03-10T01:49:32.611Z,96350.25
2023-03-10T01:52:06.525Z,96351.84
2023-03-10T01:54:43.615Z,96334.88
2023-03-10T01:57:14.616Z,96350.69
2023-03-10T01:59:43.736Z,96355.16
2023-03-10T02:02:12.760Z,96349.25
2023-03-10T02:04:43.959Z,96341.97
2023-03-10T02:07:13.930Z,96343.25
2023-03-10T02:09:47.680Z,96334.97
2023-03-10T02:12:17.056Z,96341.03
2023-03-10T02:14:48.206Z,96328.34
2023-03-10T02:17:22.854Z,96325.28
2023-03-10T02:20:10.857Z,96316.63
2023-03-10T02:22:40.521Z,96326.09
2023-03-10T02:25:22.641Z,96317.28
2023-03-10T02:27:52.885Z,96306.19
2023-03-10T02:30:25.629Z,96311.88
2023-03-10T02:32:57.562Z,96313.41
2023-03-10T02:35:28.918Z,96306.72
2023-03-10T02:38:04.854Z,96296.25
2023-03-10T02:40:37.261Z,96297.19
2023-03-10T02:43:20.056Z,96286.78
2023-03-10T02:45:52.585Z,96294.34
2023-03-10T02:48:28.221Z,96284.66
2023-03-10T02:50:58.679Z,96291.00
2023-03-10T02:53:29.062Z,96289.31
2023-03-10T02:55:58.334Z,96282.88
2023-03-10T02:58:30.388Z,96278.31
2023-03-10T03:00:59.179Z,96259.78
2023-03-10T03:03:27.931Z,96277.28
2023-03-10T03:05:56.374Z,96278.66
2023-03-10T03:08:26.927Z,96275.78
2023-03-10T03:10:55.314Z,96273.97
2023-03-10T03:13:23.821Z,96275.47
2023-03-10T03:15:53.481Z,96272.34
2023-03-10T03:18:22.268Z,96269.91
2023-03-10T03:20:51.102Z,96264.41
2023-03-10T03:23:21.148Z,96258.53
2023-03-10T03:25:50.784Z,96260.34
2023-03-10T03:28:21.362Z,96258.09
2023-03-10T03:30:53.310Z,96244.44
2023-03-10T03:33:21.706Z,96236.97
2023-03-10T03:35:51.207Z,96242.97
2023-03-10T03:38:20.110Z,96224.53
2023-03-10T03:40:49.009Z,96232.09
2023-03-10T03:43:20.181Z,96236.41
2023-03-10T03:45:49.719Z,96238.94
2023-03-10T03:48:22.028Z,96231.66
2023-03-10T03:50:51.475Z,96228.19
2023-03-10T03:53:26.326Z,96229.13
2023-03-10T03:55:54.751Z,96231.34
2023-03-10T03:58:25.944Z,96223.16
2023-03-10T04:00:54.401Z,96234.25
2023-03-10T04:03:24.353Z,96238.03
2023-03-10T04:05:52.891Z,96233.97
2023-03-10T04:08:22.204Z,96232.16
2023-03-10T04:10:52.531Z,96228.47
2023-03-10T04:13:22.484Z,96221.66
2023-03-10T04:15:56.486Z,96233.59
2023-03-10T04:18:28.063Z,96218.31
2023-03-10T04:20:57.244Z,96228.00
2023-03-10T04:23:25.574Z,96220.44
2023-03-10T04:25:55.429Z,96224.41
2023-03-10T04:28:23.709Z,96228.94
2023-03-10T04:30:54.899Z,96230.81
2023-03-10T04:33:28.027Z,96223.72
2023-03-10T04:35:56.635Z,96223.19
2023-03-10T04:38:25.787Z,96234.16
2023-03-10T04:40:55.932Z,96234.56
2023-03-10T04:43:27.913Z,96241.09
2023-03-10T04:45:58.735Z,96226.13
2023-03-10T04:48:29.224Z,96228.44
2023-03-10T04:50:58.349Z,96210.09
2023-03-10T04:53:29.489Z,96228.31
2023-03-10T04:55:58.099Z,96232.44
2023-03-10T04:58:29.204Z,96235.94
2023-03-10T05:01:03.129Z,96222.34
2023-03-10T05:03:38.569Z,96220.94
2023-03-10T05:06:13.336Z,96211.38
2023-03-10T05:08:42.560Z,96201.53
2023-03-10T05:11:11.754Z,96206.34
2023-03-10T05:13:40.258Z,96190.69
2023-03-10T05:16:15.363Z,96197.13
2023-03-10T05:18:45.194Z,96175.69
2023-03-10T05:21:14.773Z,96179.41
2023-03-10T05:23:44.825Z,96186.84
2023-03-10T05:26:15.754Z,96185.91
2023-03-10T05:28:44.677Z,96188.88
2023-03-10T05:31:16.839Z,96160.44
2023-03-10T05:33:49.326Z,96174.66
2023-03-10T05:36:17.752Z,96173.19
2023-03-10T05:38:47.456Z,96167.47
2023-03-10T05:41:17.529Z,96168.22
2023-03-10T05:43:50.834Z,96161.31
2023-03-10T05:46:20.124Z,96164.44
2023-03-10T05:48:55.429Z,96170.34
2023-03-10T05:51:26.663Z,96159.88
2023-03-10T05:53:55.615Z,96178.63
2023-03-10T05:56:28.277Z,96171.88
2023-03-10T05:59:00.606Z,96164.88
2023-03-10T06:01:32.289Z,96159.63
2023-03-10T06:04:01.959Z,96153.81
2023-03-10T06:06:30.336Z,96143.09
2023-03-10T06:08:58.866Z,96132.50
2023-03-10T06:11:27.522Z,96126.69
2023-03-10T06:13:57.991Z,96128.63
2023-03-10T06:16:26.572Z,96117.81
2023-03-10T06:18:55.925Z,96107.25
2023-03-10T06:21:26.157Z,96101.44
2023-03-10T06:23:54.434Z,96098.66
2023-03-10T06:26:25.121Z,96109.41
2023-03-10T06:28:53.403Z,96117.38
2023-03-10T06:31:24.297Z,96122.41
2023-03-10T06:33:53.246Z,96122.09
2023-03-10T06:36:22.715Z,96121.63
2023-03-10T06:38:52.278Z,96116.78
2023-03-10T06:41:22.035Z,96110.38
2023-03-10T06:43:50.481Z,96100.44
2023-03-10T06:46:18.922Z,96096.28
2023-03-10T06:48:51.116Z,96097.38
2023-03-10T06:51:21.245Z,96095.31
2023-03-10T06:53:50.116Z,96084.81
2023-03-10T06:56:21.941Z,96081.66
2023-03-10T06:58:50.481Z,96076.50
2023-03-10T07:01:24.940Z,96074.78
2023-03-10T07:03:53.929Z,96073.38
2023-03-10T07:06:23.060Z,96084.50
2023-03-10T07:08:51.903Z,96083.16
2023-03-10T07:11:22.337Z,96080.88
2023-03-10T07:13:50.667Z,96081.91
2023-03-10T07:16:19.544Z,96079.22
2023-03-10T07:18:47.945Z,96074.22
2023-03-10T07:21:18.446Z,96091.47
2023-03-10T07:23:47.416Z,96073.53
2023-03-10T07:26:18.630Z,96068.16
2023-03-10T07:28:48.552Z,96104.34
2023-03-10T07:31:17.933Z,96112.00
2023-03-10T07:33:46.383Z,96107.63
2023-03-10T07:36:16.824Z,96115.72
2023-03-10T07:38:45.203Z,96114.34
2023-03-10T07:41:16.839Z,96125.59
2023-03-10T07:43:45.314Z,96126.78
2023-03-10T07:46:16.636Z,96126.13
2023-03-10T07:48:45.524Z,96112.97
2023-03-10T07:51:14.415Z,96135.31
2023-03-10T07:53:42.753Z,96131.84
2023-03-10T07:56:13.899Z,96135.22
2023-03-10T07:58:42.994Z,96129.06
2023-03-10T08:01:18.254Z,96133.34
2023-03-10T08:03:49.811Z,96134.63
2023-03-10T08:06:19.768Z,96129.59
2023-03-10T08:08:48.513Z,96134.25
2023-03-10T08:11:17.780Z,96137.38
2023-03-10T08:13:47.553Z,96148.63
2023-03-10T08:16:21.921Z,96145.53
2023-03-10T08:18:50.621Z,96150.84
2023-03-10T08:21:19.042Z,96148.63
2023-03-10T08:23:47.677Z,96155.75
2023-03-10T08:26:18.573Z,96169.66
2023-03-10T08:28:47.526Z,96177.56
2023-03-10T08:31:17.700Z,96200.03
2023-03-10T08:33:47.995Z,96210.56
2023-03-10T08:36:18.903Z,96198.09
2023-03-10T08:38:47.922Z,96193.88
2023-03-10T08:41:18.866Z,96183.66
2023-03-10T08:43:49.295Z,96172.97
2023-03-10T08:46:18.392Z,96172.19
2023-03-10T08:48:48.532Z,96171.56
2023-03-10T08:51:17.117Z,96179.88
2023-03-10T08:53:47.558Z,96182.44
2023-03-10T08:56:17.437Z,96175.47
2023-03-10T08:58:45.977Z,96193.25
2023-03-10T09:01:18.169Z,96182.50
2023-03-10T09:03:48.123Z,96180.38
2023-03-10T09:06:16.650Z,96176.03
2023-03-10T09:08:45.176Z,96178.03
2023-03-10T09:11:18.151Z,96192.91
2023-03-10T09:13:46.486Z,96191.06
2023-03-10T09:16:15.214Z,96206.31
2023-03-10T09:18:43.925Z,96212.03
2023-03-10T09:21:16.218Z,96219.16
2023-03-10T09:23:46.025Z,96213.66
2023-03-10T09:26:15.069Z,96220.25
2023-03-10T09:28:43.591Z,96209.00
2023-03-10T09:31:17.366Z,96209.00
2023-03-10T09:33:48.226Z,96222.06
2023-03-10T09:36:20.902Z,96228.59
2023-03-10T09:38:49.312Z,96224.25
2023-03-10T09:41:42.235Z,96216.97
2023-03-10T09:44:25.216Z,96229.63
2023-03-10T09:47:07.915Z,96216.25
2023-03-10T09:49:39.634Z,96226.47
2023-03-10T09:52:24.890Z,96224.25
2023-03-10T09:55:00.080Z,96229.84
2023-03-10T09:57:31.500Z,96222.22
2023-03-10T10:00:09.413Z,96217.84
2023-03-10T10:02:42.286Z,96225.50
2023-03-10T10:05:17.804Z,96230.66
2023-03-10T10:07:51.969Z,96224.84
2023-03-10T10:10:25.606Z,96230.44
2023-03-10T10:12:55.101Z,96225.59
2023-03-10T10:15:25.190Z,96230.66
2023-03-10T10:18:18.517Z,96235.63
2023-03-10T10:20:53.719Z,96233.25
2023-03-10T10:23:29.484Z,96225.53
2023-03-10T10:26:02.903Z,96222.75
2023-03-10T10:28:41.645Z,96234.31
2023-03-10T10:31:16.686Z,96236.41
2023-03-10T10:33:59.915Z,96234.19
2023-03-10T10:36:30.792Z,96241.41
2023-03-10T10:39:01.049Z,96239.91
2023-03-10T10:41:31.528Z,96244.13
2023-03-10T10:44:07.550Z,96234.72
2023-03-10T10:46:36.722Z,96245.03
2023-03-10T10:49:08.915Z,96245.84
2023-03-10T10:51:38.737Z,96242.78
2023-03-10T10:54:28.306Z,96244.25
2023-03-10T10:56:58.605Z,96235.56
2023-03-10T10:59:31.067Z,96241.31
2023-03-10T11:02:01.766Z,96241.06
2023-03-10T11:04:41.900Z,96253.34
2023-03-10T11:07:13.391Z,96242.97
2023-03-10T11:09:43.138Z,96240.50
2023-03-10T11:12:20.434Z,96225.53
2023-03-10T11:15:01.678Z,96239.63
2023-03-10T11:17:34.490Z,96234.59
2023-03-10T11:20:15.665Z,96231.31
2023-03-10T11:22:48.085Z,96245.31
2023-03-10T11:25:29.426Z,96246.06
2023-03-10T11:28:10.902Z,96234.66
2023-03-10T11:30:46.545Z,96248.09
2023-03-10T11:33:24.751Z,96248.25
2023-03-10T11:35:59.153Z,96257.09
2023-03-10T11:38:38.117Z,96251.47
2023-03-10T11:41:14.256Z,96248.94
2023-03-10T11:43:57.058Z,96250.63
2023-03-10T11:46:29.981Z,96255.81
2023-03-10T11:49:07.349Z,96248.16
2023-03-10T11:51:40.748Z,96250.28
2023-03-10T11:54:15.718Z,96248.72
2023-03-10T11:56:46.672Z,96243.94
2023-03-10T11:59:18.875Z,96233.72
2023-03-10T12:01:53.270Z,96232.66
2023-03-10T12:04:24.861Z,96228.97
2023-03-10T12:06:58.556Z,96224.97
2023-03-10T12:09:39.978Z,96224.75
2023-03-10T12:12:14.907Z,96221.91
2023-03-10T12:14:44.729Z,96227.72
2023-03-10T12:17:15.530Z,96226.22
2023-03-10T12:20:08.707Z,96213.31
2023-03-10T12:22:39.768Z,96223.72
2023-03-10T12:25:43.303Z,96230.19
2023-03-10T12:28:31.011Z,96219.34
2023-03-10T12:31:01.224Z,96225.50
2023-03-10T12:33:41.981Z,96244.75
2023-03-10T12:36:15.071Z,96230.13
2023-03-10T12:38:47.138Z,96247.56
2023-03-10T12:41:35.892Z,96245.69
2023-03-10T12:44:26.637Z,96238.91
2023-03-10T12:47:01.136Z,96245.03
2023-03-10T12:49:37.759Z,96233.06
2023-03-10T12:52:21.506Z,96234.91
2023-03-10T12:55:02.369Z,96209.19
2023-03-10T12:57:33.798Z,96243.84
2023-03-10T13:00:12.376Z,96237.44
2023-03-10T13:02:51.431Z,96240.88
2023-03-10T13:05:23.252Z,96233.56
2023-03-10T13:07:55.671Z,96241.81
2023-03-10T13:10:28.310Z,96240.34
2023-03-10T13:13:01.910Z,96243.63
2023-03-10T13:15:33.439Z,96242.59
2023-03-10T13:18:16.924Z,96241.84
2023-03-10T13:20:45.627Z,96251.59
2023-03-10T13:23:22.990Z,96261.50
2023-03-10T13:25:56.099Z,96265.47
2023-03-10T13:28:25.799Z,96269.06
2023-03-10T13:31:09.821Z,96250.88
2023-03-10T13:33:50.158Z,96260.38
2023-03-10T13:36:31.556Z,96257.91
2023-03-10T13:39:01.656Z,96265.34
2023-03-10T13:41:30.187Z,96266.78
2023-03-10T13:43:58.954Z,96272.78
2023-03-10T13:46:30.987Z,96282.31
2023-03-10T13:49:03.856Z,96278.28
2023-03-10T13:51:35.041Z,96279.47
2023-03-10T13:54:19.685Z,96276.47
2023-03-10T13:56:49.581Z,96279.97
2023-03-10T13:59:23.037Z,96278.28
2023-03-10T14:01:55.612Z,96274.88
2023-03-10T14:04:42.292Z,96288.25
2023-03-10T14:07:13.108Z,96293.25
2023-03-10T14:09:41.559Z,96327.59
2023-03-10T14:12:37.131Z,96327.69
2023-03-10T14:15:21.916Z,96326.59
2023-03-10T14:17:53.577Z,96325.41
2023-03-10T14:20:29.548Z,96331.75
2023-03-10T14:22:58.828Z,96327.44
2023-03-10T14:25:28.054Z,96325.09
2023-03-10T14:27:58.253Z,96348.31
2023-03-10T14:30:28.465Z,96346.09
2023-03-10T14:32:59.887Z,96347.97
2023-03-10T14:35:29.984Z,96347.97
2023-03-10T14:37:58.463Z,96363.88
2023-03-10T14:40:27.090Z,96375.69
2023-03-10T14:43:00.051Z,96362.16
2023-03-10T14:45:31.166Z,96359.84
2023-03-10T14:48:03.117Z,96368.78
2023-03-10T14:50:32.555Z,96367.41
2023-03-10T14:53:01.352Z,96366.97
2023-03-10T14:55:30.683Z,96376.25
2023-03-10T14:58:01.890Z,96358.53
2023-03-10T15:00:30.517Z,96402.44
2023-03-10T15:03:00.972Z,96386.56
2023-03-10T15:05:46.862Z,96379.75
2023-03-10T15:08:16.861Z,96373.00
2023-03-10T15:10:48.167Z,96392.50
2023-03-10T15:13:18.478Z,96405.91
2023-03-10T15:15:48.726Z,96415.97
2023-03-10T15:18:20.549Z,96441.53
2023-03-10T15:20:49.534Z,96456.91
2023-03-10T15:23:20.062Z,96486.03
2023-03-10T15:25:48.830Z,96491.06
2023-03-10T15:28:17.564Z,96495.13
2023-03-10T15:30:46.048Z,96475.88
2023-03-10T15:33:14.391Z,96471.81
2023-03-10T15:35:44.771Z,96459.47
2023-03-10T15:38:15.521Z,96441.50
2023-03-10T15:40:43.855Z,96443.66
2023-03-10T15:43:11.969Z,96433.72
2023-03-10T15:45:41.421Z,96433.94
2023-03-10T15:48:10.288Z,96413.41
2023-03-10T15:50:42.964Z,96455.16
2023-03-10T15:53:12.701Z,96463.50
2023-03-10T15:55:42.530Z,96457.00
2023-03-10T15:58:12.318Z,96477.81
2023-03-10T16:00:42.275Z,96466.22
2023-03-10T16:03:11.081Z,96469.06
2023-03-10T16:05:39.217Z,96454.78
2023-03-10T16:08:07.504Z,96454.03
2023-03-10T16:10:39.859Z,96431.47
2023-03-10T16:13:08.455Z,96403.09
2023-03-10T16:15:39.380Z,96429.22
2023-03-10T16:18:07.750Z,96427.13
2023-03-10T16:20:36.053Z,96431.59
2023-03-10T16:23:04.571Z,96414.56
2023-03-10T16:25:32.857Z,96395.44
2023-03-10T16:28:04.786Z,96416.81
2023-03-10T16:30:33.260Z,96438.44
2023-03-10T16:33:01.795Z,96431.13
2023-03-10T16:35:30.391Z,96462.25
2023-03-10T16:38:01.559Z,96471.84
2023-03-10T16:40:31.905Z,96471.84
2023-03-10T16:43:00.187Z,96504.84
2023-03-10T16:45:29.615Z,96497.16
2023-03-10T16:47:57.770Z,96505.19
2023-03-10T16:50:25.827Z,96485.03
2023-03-10T16:52:56.588Z,96486.91
2023-03-10T16:55:24.758Z,96485.28
2023-03-10T16:57:52.746Z,96491.09
2023-03-10T17:00:22.842Z,96491.91
2023-03-10T17:02:56.416Z,96495.91
2023-03-10T17:05:25.271Z,96492.09
2023-03-10T17:07:56.217Z,96489.56
2023-03-10T17:10:26.509Z,96501.72
2023-03-10T17:12:54.656Z,96511.53
2023-03-10T17:15:22.724Z,96508.56
2023-03-10T17:17:50.874Z,96527.38
2023-03-10T17:20:21.414Z,96543.59
2023-03-10T17:22:49.488Z,96563.75
2023-03-10T17:25:17.489Z,96559.03
2023-03-10T17:27:45.456Z,96554.56
2023-03-10T17:30:15.515Z,96552.56
2023-03-10T17:32:45.104Z,96520.41
2023-03-10T17:35:13.353Z,96532.09
2023-03-10T17:37:42.663Z,96513.84
2023-03-10T17:40:15.329Z,96538.09
2023-03-10T17:42:43.609Z,96569.06
2023-03-10T17:45:12.087Z,96583.16
2023-03-10T17:47:41.093Z,96603.69
2023-03-10T17:50:09.751Z,96630.91
2023-03-10T17:52:37.744Z,96605.38
2023-03-10T17:55:08.524Z,96615.78
2023-03-10T17:57:37.457Z,96605.56
2023-03-10T18:00:08.705Z,96603.03
2023-03-10T18:02:40.319Z,96633.72
2023-03-10T18:05:08.724Z,96606.16
2023-03-10T18:07:38.832Z,96617.41
2023-03-10T18:10:08.919Z,96610.41
2023-03-10T18:12:36.973Z,96603.47
2023-03-10T18:15:05.640Z,96618.66
2023-03-10T18:17:33.705Z,96604.53
2023-03-10T18:20:02.094Z,96606.59
2023-03-10T18:22:30.128Z,96607.41
2023-03-10T18:25:01.428Z,96586.94
2023-03-10T18:27:31.261Z,96625.16
2023-03-10T18:29:59.264Z,96612.09
2023-03-10T18:32:27.393Z,96619.34
2023-03-10T18:34:57.976Z,96624.97
2023-03-10T18:37:26.066Z,96631.63
2023-03-10T18:39:54.034Z,96643.56
2023-03-10T18:42:23.206Z,96641.69
2023-03-10T18:44:52.557Z,96640.06
2023-03-10T18:47:20.698Z,96658.78
2023-03-10T18:49:49.160Z,96655.59
2023-03-10T18:52:17.206Z,96661.63
2023-03-10T18:54:45.284Z,96678.63
2023-03-10T18:57:14.460Z,96686.00
2023-03-10T18:59:42.935Z,96704.28
2023-03-10T19:02:13.977Z,96706.13
2023-03-10T19:04:42.208Z,96701.22
2023-03-10T19:07:11.031Z,96724.03
2023-03-10T19:09:39.418Z,96718.47
2023-03-10T19:12:08.082Z,96748.81
2023-03-10T19:14:37.061Z,96722.94
2023-03-10T19:17:05.452Z,96732.69
2023-03-10T19:19:34.950Z,96758.50
2023-03-10T19:22:02.940Z,96756.19
2023-03-10T19:24:30.986Z,96757.75
2023-03-10T19:26:58.954Z,96755.41
2023-03-10T19:29:27.016Z,96740.72
2023-03-10T19:31:55.007Z,96704.81
2023-03-10T19:34:25.986Z,96760.03
2023-03-10T19:36:55.409Z,96746.34
2023-03-10T19:39:23.797Z,96764.66
2023-03-10T19:41:51.853Z,96760.03
2023-03-10T19:44:21.797Z,96772.91
2023-03-10T19:46:49.967Z,96787.38
2023-03-10T19:49:17.952Z,96779.69
2023-03-10T19:51:46.048Z,96805.06
2023-03-10T19:54:15.567Z,96803.28
2023-03-10T19:56:43.707Z,96828.66
2023-03-10T19:59:11.966Z,96878.00
2023-03-10T20:01:42.291Z,96863.47
2023-03-10T20:04:11.452Z,96851.13
2023-03-10T20:06:39.773Z,96871.84
2023-03-10T20:09:10.436Z,96890.91
2023-03-10T20:11:41.024Z,96887.78
2023-03-10T20:14:12.777Z,96924.81
2023-03-10T20:16:41.164Z,96934.38
2023-03-10T20:19:09.983Z,96935.19
2023-03-10T20:21:38.731Z,96961.88
2023-03-10T20:24:07.046Z,96960.59
2023-03-10T20:26:35.410Z,96970.50
2023-03-10T20:29:04.896Z,96953.81
2023-03-10T20:31:34.125Z,96994.13
2023-03-10T20:34:02.299Z,96989.09
2023-03-10T20:36:30.851Z,96996.44
2023-03-10T20:38:59.430Z,96984.59
2023-03-10T20:41:27.880Z,96992.00
2023-03-10T20:43:56.235Z,97018.38
2023-03-10T20:46:25.984Z,97029.31
2023-03-10T20:48:54.196Z,97034.53
2023-03-10T20:51:23.437Z,97017.00
2023-03-10T20:53:54.157Z,97071.44
2023-03-10T20:56:22.187Z,97081.03
2023-03-10T20:58:53.670Z,97116.16
2023-03-10T21:01:22.341Z,97117.41
2023-03-10T21:03:54.522Z,97114.59
2023-03-10T21:06:23.129Z,97141.25
2023-03-10T21:08:51.383Z,97145.63
2023-03-10T21:11:20.033Z,97152.84
2023-03-10T21:13:50.923Z,97163.34
2023-03-10T21:16:20.850Z,97177.97
2023-03-10T21:18:54.152Z,97191.59
2023-03-10T21:21:22.673Z,97193.31
2023-03-10T21:23:50.712Z,97220.63
2023-03-10T21:26:21.716Z,97225.22
2023-03-10T21:28:52.998Z,97205.81
2023-03-10T21:31:21.228Z,97227.53
2023-03-10T21:33:50.111Z,97219.81
2023-03-10T21:36:21.394Z,97233.41
2023-03-10T21:38:50.969Z,97232.00
2023-03-10T21:41:22.572Z,97246.59
2023-03-10T21:43:51.430Z,97262.66
2023-03-10T21:46:19.858Z,97263.31
2023-03-10T21:48:48.778Z,97267.97
2023-03-10T21:51:21.926Z,97237.03
2023-03-10T21:53:56.901Z,97264.56
2023-03-10T21:56:28.789Z,97264.78
2023-03-10T21:58:58.122Z,97264.78
2023-03-10T22:02:40.947Z,97267.81
2023-03-10T22:05:09.922Z,97287.81
2023-03-10T22:07:38.492Z,97282.16
2023-03-10T22:10:07.154Z,97284.63
2023-03-10T22:12:35.281Z,97295.78
2023-03-10T22:15:03.968Z,97298.53
2023-03-10T22:17:33.136Z,97310.22
2023-03-10T22:20:06.570Z,97302.06
2023-03-10T22:22:37.460Z,97303.81
2023-03-10T22:25:05.806Z,97322.28
2023-03-10T22:27:33.842Z,97324.91
2023-03-10T22:30:08.075Z,97327.91
2023-03-10T22:32:36.821Z,97320.00
2023-03-10T22:35:06.886Z,97317.66
2023-03-10T22:37:34.931Z,97327.59
2023-03-10T22:40:05.193Z,97322.66
2023-03-10T22:42:33.876Z,97338.59
2023-03-10T22:45:05.167Z,97346.06
2023-03-10T22:47:33.183Z,97345.94
2023-03-10T22:50:01.237Z,97370.66
2023-03-10T22:52:30.745Z,97371.91
2023-03-10T22:55:00.239Z,97382.50
2023-03-10T22:57:28.291Z,97374.16
2023-03-10T22:59:56.334Z,97380.44
2023-03-10T23:02:24.335Z,97386.13
2023-03-10T23:04:52.346Z,97394.38
2023-03-10T23:07:20.399Z,97381.28
2023-03-10T23:09:50.026Z,97390.34
2023-03-10T23:12:18.124Z,97386.19
2023-03-10T23:14:46.229Z,97396.78
2023-03-10T23:17:14.218Z,97404.28
2023-03-10T23:19:42.308Z,97422.94
2023-03-10T23:22:10.356Z,97431.06
2023-03-10T23:24:38.457Z,97415.31
2023-03-10T23:27:07.887Z,97422.66
2023-03-10T23:29:35.945Z,97403.13
2023-03-10T23:32:07.010Z,97415.19
2023-03-10T23:34:35.024Z,97391.78
2023-03-10T23:37:03.109Z,97387.69
2023-03-10T23:39:31.078Z,97400.38
2023-03-10T23:41:59.200Z,97409.41
2023-03-10T23:44:28.556Z,97391.63
2023-03-10T23:46:56.695Z,97402.09
2023-03-10T23:49:24.786Z,97403.19
2023-03-10T23:51:54.391Z,97413.59
2023-03-10T23:54:22.842Z,97412.47
2023-03-10T23:56:51.316Z,97410.97
2023-03-10T23:59:19.449Z,97408.38
